sensor_id;sensor_type;location;lat;lon;timestamp;pressure;altitude;pressure_sealevel;temperature;humidity
11077;BME280;5591;42.626;23.380;2023-07-20T00:01:52;93925.91;;;25.10;98.18
11077;BME280;5591;42.626;23.380;2023-07-20T00:04:19;93930.78;;;25.08;99.55
11077;BME280;5591;42.626;23.380;2023-07-20T00:06:46;93930.94;;;24.93;100.00
11077;BME280;5591;42.626;23.380;2023-07-20T00:09:13;93945.63;;;24.72;100.00
11077;BME280;5591;42.626;23.380;2023-07-20T00:11:48;93948.06;;;24.69;100.00
11077;BME280;5591;42.626;23.380;2023-07-20T00:14:16;93944.69;;;24.53;100.00
11077;BME280;5591;42.626;23.380;2023-07-20T00:16:43;93942.00;;;24.48;100.00
11077;BME280;5591;42.626;23.380;2023-07-20T00:19:10;93907.31;;;24.28;100.00
11077;BME280;5591;42.626;23.380;2023-07-20T00:21:36;93926.22;;;24.42;100.00
11077;BME280;5591;42.626;23.380;2023-07-20T00:24:06;93860.31;;;23.97;100.00
11077;BME280;5591;42.626;23.380;2023-07-20T00:26:33;93919.34;;;24.31;100.00
11077;BME280;5591;42.626;23.380;2023-07-20T00:29:01;93920.50;;;24.20;100.00
11077;BME280;5591;42.626;23.380;2023-07-20T00:31:29;93921.63;;;24.09;100.00
11077;BME280;5591;42.626;23.380;2023-07-20T00:33:56;93912.19;;;24.16;100.00
11077;BME280;5591;42.626;23.380;2023-07-20T00:36:23;93919.56;;;24.01;100.00
11077;BME280;5591;42.626;23.380;2023-07-20T00:38:49;93923.41;;;23.85;100.00
11077;BME280;5591;42.626;23.380;2023-07-20T00:41:16;93920.56;;;24.10;100.00
11077;BME280;5591;42.626;23.380;2023-07-20T00:43:43;93912.25;;;24.11;100.00
11077;BME280;5591;42.626;23.380;2023-07-20T00:46:11;93890.91;;;23.91;100.00
11077;BME280;5591;42.626;23.380;2023-07-20T00:48:39;93906.38;;;24.04;100.00
11077;BME280;5591;42.626;23.380;2023-07-20T00:51:06;93902.59;;;24.05;100.00
11077;BME280;5591;42.626;23.380;2023-07-20T00:53:33;93886.59;;;24.34;100.00
11077;BME280;5591;42.626;23.380;2023-07-20T00:56:00;93892.06;;;24.52;99.16
11077;BME280;5591;42.626;23.380;2023-07-20T00:58:27;93890.66;;;24.65;98.69
11077;BME280;5591;42.626;23.380;2023-07-20T01:00:54;93888.28;;;24.58;100.00
11077;BME280;5591;42.626;23.380;2023-07-20T01:03:22;93889.19;;;24.05;100.00
11077;BME280;5591;42.626;23.380;2023-07-20T01:05:54;93890.34;;;23.94;100.00
11077;BME280;5591;42.626;23.380;2023-07-20T01:08:29;93903.28;;;23.87;100.00
11077;BME280;5591;42.626;23.380;2023-07-20T01:11:06;93886.38;;;23.82;100.00
11077;BME280;5591;42.626;23.380;2023-07-20T01:13:36;93875.31;;;23.50;100.00
11077;BME280;5591;42.626;23.380;2023-07-20T01:16:04;93921.94;;;23.44;100.00
11077;BME280;5591;42.626;23.380;2023-07-20T01:18:32;93894.19;;;23.20;100.00
11077;BME280;5591;42.626;23.380;2023-07-20T01:21:00;93924.97;;;23.22;100.00
11077;BME280;5591;42.626;23.380;2023-07-20T01:24:05;93906.50;;;23.21;100.00
11077;BME280;5591;42.626;23.380;2023-07-20T01:29:47;93905.19;;;23.03;100.00
11077;BME280;5591;42.626;23.380;2023-07-20T01:32:23;93909.47;;;23.14;100.00
11077;BME280;5591;42.626;23.380;2023-07-20T01:34:52;93903.81;;;23.11;100.00
11077;BME280;5591;42.626;23.380;2023-07-20T01:37:21;93903.28;;;23.04;100.00
11077;BME280;5591;42.626;23.380;2023-07-20T01:39:52;93920.19;;;23.14;100.00
11077;BME280;5591;42.626;23.380;2023-07-20T01:42:21;93911.06;;;23.05;100.00
11077;BME280;5591;42.626;23.380;2023-07-20T01:44:50;93913.25;;;22.84;100.00
11077;BME280;5591;42.626;23.380;2023-07-20T01:47:17;93904.66;;;22.87;100.00
11077;BME280;5591;42.626;23.380;2023-07-20T01:49:46;93898.03;;;22.74;100.00
11077;BME280;5591;42.626;23.380;2023-07-20T01:52:13;93906.28;;;22.78;100.00
11077;BME280;5591;42.626;23.380;2023-07-20T01:54:40;93910.03;;;22.82;100.00
11077;BME280;5591;42.626;23.380;2023-07-20T01:57:07;93909.00;;;22.68;100.00
11077;BME280;5591;42.626;23.380;2023-07-20T01:59:34;93906.84;;;22.70;100.00
11077;BME280;5591;42.626;23.380;2023-07-20T02:02:01;93896.13;;;22.80;100.00
11077;BME280;5591;42.626;23.380;2023-07-20T02:04:27;93900.38;;;22.96;100.00
11077;BME280;5591;42.626;23.380;2023-07-20T02:06:56;93895.59;;;22.83;100.00
11077;BME280;5591;42.626;23.380;2023-07-20T02:09:22;93887.84;;;22.71;100.00
11077;BME280;5591;42.626;23.380;2023-07-20T02:11:49;93898.25;;;22.83;100.00
11077;BME280;5591;42.626;23.380;2023-07-20T02:14:16;93889.19;;;22.79;100.00
11077;BME280;5591;42.626;23.380;2023-07-20T02:16:43;93891.88;;;22.59;100.00
11077;BME280;5591;42.626;23.380;2023-07-20T02:19:10;93875.28;;;22.57;100.00
11077;BME280;5591;42.626;23.380;2023-07-20T02:21:37;93891.88;;;22.69;100.00
11077;BME280;5591;42.626;23.380;2023-07-20T02:24:05;93878.75;;;22.67;100.00
11077;BME280;5591;42.626;23.380;2023-07-20T02:26:32;93891.59;;;22.60;100.00
11077;BME280;5591;42.626;23.380;2023-07-20T02:28:59;93894.28;;;22.55;100.00
11077;BME280;5591;42.626;23.380;2023-07-20T02:31:26;93891.09;;;22.53;100.00
11077;BME280;5591;42.626;23.380;2023-07-20T02:33:53;93889.47;;;22.47;100.00
11077;BME280;5591;42.626;23.380;2023-07-20T02:36:19;93891.34;;;22.42;100.00
11077;BME280;5591;42.626;23.380;2023-07-20T02:38:46;93881.69;;;22.31;100.00
11077;BME280;5591;42.626;23.380;2023-07-20T02:41:14;93856.56;;;22.07;100.00
11077;BME280;5591;42.626;23.380;2023-07-20T02:43:41;93882.50;;;22.26;100.00
11077;BME280;5591;42.626;23.380;2023-07-20T02:46:08;93880.88;;;22.30;100.00
11077;BME280;5591;42.626;23.380;2023-07-20T02:48:35;93871.84;;;22.41;100.00
11077;BME280;5591;42.626;23.380;2023-07-20T02:51:02;93864.34;;;22.43;100.00
11077;BME280;5591;42.626;23.380;2023-07-20T02:53:28;93860.84;;;22.28;100.00
11077;BME280;5591;42.626;23.380;2023-07-20T02:55:55;93853.63;;;22.08;100.00
11077;BME280;5591;42.626;23.380;2023-07-20T02:58:23;93863.00;;;22.16;100.00
11077;BME280;5591;42.626;23.380;2023-07-20T03:00:50;93860.84;;;22.13;100.00
11077;BME280;5591;42.626;23.380;2023-07-20T03:03:17;93859.78;;;22.04;100.00
11077;BME280;5591;42.626;23.380;2023-07-20T03:05:44;93853.88;;;22.12;100.00
11077;BME280;5591;42.626;23.380;2023-07-20T03:08:11;93856.56;;;22.12;100.00
11077;BME280;5591;42.626;23.380;2023-07-20T03:10:39;93867.78;;;22.24;100.00
11077;BME280;5591;42.626;23.380;2023-07-20T03:13:07;93868.84;;;22.23;100.00
11077;BME280;5591;42.626;23.380;2023-07-20T03:15:35;93876.34;;;22.31;100.00
11077;BME280;5591;42.626;23.380;2023-07-20T03:18:02;93866.75;;;22.40;100.00
11077;BME280;5591;42.626;23.380;2023-07-20T03:20:29;93873.16;;;22.39;100.00
11077;BME280;5591;42.626;23.380;2023-07-20T03:22:56;93878.50;;;22.44;100.00
11077;BME280;5591;42.626;23.380;2023-07-20T03:25:23;93815.13;;;22.04;100.00
11077;BME280;5591;42.626;23.380;2023-07-20T03:27:50;93885.19;;;22.51;100.00
11077;BME280;5591;42.626;23.380;2023-07-20T03:30:16;93883.06;;;22.63;100.00
11077;BME280;5591;42.626;23.380;2023-07-20T03:32:45;93885.72;;;22.63;100.00
11077;BME280;5591;42.626;23.380;2023-07-20T03:35:11;93895.63;;;22.68;100.00
11077;BME280;5591;42.626;23.380;2023-07-20T03:37:38;93889.72;;;22.81;100.00
11077;BME280;5591;42.626;23.380;2023-07-20T03:40:06;93891.31;;;22.82;100.00
11077;BME280;5591;42.626;23.380;2023-07-20T03:42:33;93884.88;;;22.83;100.00
11077;BME280;5591;42.626;23.380;2023-07-20T03:45:00;93914.56;;;22.91;100.00
11077;BME280;5591;42.626;23.380;2023-07-20T03:47:28;93878.66;;;23.02;100.00
11077;BME280;5591;42.626;23.380;2023-07-20T03:49:56;93884.81;;;23.17;100.00
11077;BME280;5591;42.626;23.380;2023-07-20T03:52:23;93889.09;;;23.23;100.00
11077;BME280;5591;42.626;23.380;2023-07-20T03:54:50;93892.50;;;23.34;100.00
11077;BME280;5591;42.626;23.380;2023-07-20T03:57:17;93887.97;;;23.34;100.00
11077;BME280;5591;42.626;23.380;2023-07-20T03:59:45;93892.00;;;23.32;100.00
11077;BME280;5591;42.626;23.380;2023-07-20T04:02:12;93891.44;;;23.40;100.00
11077;BME280;5591;42.626;23.380;2023-07-20T04:04:39;93896.22;;;23.43;100.00
11077;BME280;5591;42.626;23.380;2023-07-20T04:07:07;93897.84;;;23.44;100.00
11077;BME280;5591;42.626;23.380;2023-07-20T04:09:34;93898.59;;;23.54;100.00
11077;BME280;5591;42.626;23.380;2023-07-20T04:12:00;93889.19;;;23.57;100.00
11077;BME280;5591;42.626;23.380;2023-07-20T04:14:27;93881.28;;;23.80;100.00
11077;BME280;5591;42.626;23.380;2023-07-20T04:16:54;93877.19;;;23.98;100.00
11077;BME280;5591;42.626;23.380;2023-07-20T04:19:21;93889.44;;;24.09;100.00
11077;BME280;5591;42.626;23.380;2023-07-20T04:21:48;93886.94;;;24.22;100.00
11077;BME280;5591;42.626;23.380;2023-07-20T04:24:16;93880.81;;;24.17;100.00
11077;BME280;5591;42.626;23.380;2023-07-20T04:26:43;93884.75;;;23.91;100.00
11077;BME280;5591;42.626;23.380;2023-07-20T04:29:09;93883.19;;;23.80;100.00
11077;BME280;5591;42.626;23.380;2023-07-20T04:31:36;93876.66;;;23.96;100.00
11077;BME280;5591;42.626;23.380;2023-07-20T04:34:03;93874.00;;;23.96;100.00
11077;BME280;5591;42.626;23.380;2023-07-20T04:36:30;93875.69;;;23.77;100.00
11077;BME280;5591;42.626;23.380;2023-07-20T04:38:56;93875.91;;;23.90;100.00
11077;BME280;5591;42.626;23.380;2023-07-20T04:41:25;93868.38;;;23.92;100.00
11077;BME280;5591;42.626;23.380;2023-07-20T04:43:51;93874.88;;;23.86;100.00
11077;BME280;5591;42.626;23.380;2023-07-20T04:46:18;93856.88;;;23.87;100.00
11077;BME280;5591;42.626;23.380;2023-07-20T04:48:46;93868.03;;;24.04;100.00
11077;BME280;5591;42.626;23.380;2023-07-20T04:51:13;93865.31;;;24.09;100.00
11077;BME280;5591;42.626;23.380;2023-07-20T04:53:40;93866.66;;;24.11;100.00
11077;BME280;5591;42.626;23.380;2023-07-20T04:56:08;93867.44;;;24.45;100.00
11077;BME280;5591;42.626;23.380;2023-07-20T04:58:37;93867.44;;;24.45;100.00
11077;BME280;5591;42.626;23.380;2023-07-20T05:01:04;93864.94;;;24.59;100.00
11077;BME280;5591;42.626;23.380;2023-07-20T05:03:31;93859.13;;;24.75;100.00
11077;BME280;5591;42.626;23.380;2023-07-20T05:05:58;93856.25;;;24.95;100.00
11077;BME280;5591;42.626;23.380;2023-07-20T05:08:24;93854.03;;;25.02;100.00
11077;BME280;5591;42.626;23.380;2023-07-20T05:10:52;93853.81;;;25.22;100.00
11077;BME280;5591;42.626;23.380;2023-07-20T05:13:19;93848.75;;;25.21;100.00
11077;BME280;5591;42.626;23.380;2023-07-20T05:15:51;93842.44;;;25.30;100.00
11077;BME280;5591;42.626;23.380;2023-07-20T05:18:18;93862.31;;;25.53;100.00
11077;BME280;5591;42.626;23.380;2023-07-20T05:20:46;93862.31;;;25.53;100.00
11077;BME280;5591;42.626;23.380;2023-07-20T05:23:13;93861.97;;;25.77;100.00
11077;BME280;5591;42.626;23.380;2023-07-20T05:25:39;93861.59;;;25.89;100.00
11077;BME280;5591;42.626;23.380;2023-07-20T05:28:06;93850.69;;;25.99;100.00
11077;BME280;5591;42.626;23.380;2023-07-20T05:30:33;93863.16;;;26.08;100.00
11077;BME280;5591;42.626;23.380;2023-07-20T05:33:01;93859.06;;;26.29;100.00
11077;BME280;5591;42.626;23.380;2023-07-20T05:35:28;93866.00;;;26.35;99.67
11077;BME280;5591;42.626;23.380;2023-07-20T05:37:55;93863.91;;;26.46;97.62
11077;BME280;5591;42.626;23.380;2023-07-20T05:40:22;93865.09;;;26.72;94.09
11077;BME280;5591;42.626;23.380;2023-07-20T05:42:49;93870.63;;;26.80;93.00
11077;BME280;5591;42.626;23.380;2023-07-20T05:45:17;93869.38;;;26.91;90.82
11077;BME280;5591;42.626;23.380;2023-07-20T05:47:44;93881.03;;;26.87;89.02
11077;BME280;5591;42.626;23.380;2023-07-20T05:50:13;93877.50;;;26.73;90.16
11077;BME280;5591;42.626;23.380;2023-07-20T05:52:40;93886.75;;;26.67;91.54
11077;BME280;5591;42.626;23.380;2023-07-20T05:55:07;93881.94;;;26.96;89.52
11077;BME280;5591;42.626;23.380;2023-07-20T05:57:34;93906.06;;;27.33;88.33
11077;BME280;5591;42.626;23.380;2023-07-20T06:00:06;93887.44;;;27.04;89.99
11077;BME280;5591;42.626;23.380;2023-07-20T06:02:33;93881.09;;;27.41;88.70
11077;BME280;5591;42.626;23.380;2023-07-20T06:05:00;93882.72;;;27.69;85.34
11077;BME280;5591;42.626;23.380;2023-07-20T06:07:29;93875.81;;;27.76;85.79
11077;BME280;5591;42.626;23.380;2023-07-20T06:09:56;93873.41;;;27.75;85.87
11077;BME280;5591;42.626;23.380;2023-07-20T06:12:23;93876.13;;;27.75;85.38
11077;BME280;5591;42.626;23.380;2023-07-20T06:14:50;93853.84;;;27.29;83.52
11077;BME280;5591;42.626;23.380;2023-07-20T06:17:17;93869.88;;;28.01;81.01
11077;BME280;5591;42.626;23.380;2023-07-20T06:19:44;93869.19;;;27.82;81.85
11077;BME280;5591;42.626;23.380;2023-07-20T06:22:11;93863.50;;;27.97;82.09
11077;BME280;5591;42.626;23.380;2023-07-20T06:24:39;93866.09;;;28.24;81.39
11077;BME280;5591;42.626;23.380;2023-07-20T06:27:06;93861.78;;;28.59;78.65
11077;BME280;5591;42.626;23.380;2023-07-20T06:29:32;93849.66;;;28.78;76.82
11077;BME280;5591;42.626;23.380;2023-07-20T06:31:59;93844.53;;;28.46;77.92
11077;BME280;5591;42.626;23.380;2023-07-20T06:34:26;93842.47;;;28.73;77.10
11077;BME280;5591;42.626;23.380;2023-07-20T06:36:53;93846.63;;;28.71;77.64
11077;BME280;5591;42.626;23.380;2023-07-20T06:39:20;93859.03;;;28.50;78.58
11077;BME280;5591;42.626;23.380;2023-07-20T06:41:48;93828.94;;;28.65;77.54
11077;BME280;5591;42.626;23.380;2023-07-20T06:44:15;93855.06;;;29.00;76.57
11077;BME280;5591;42.626;23.380;2023-07-20T06:46:42;93848.78;;;29.13;73.63
11077;BME280;5591;42.626;23.380;2023-07-20T06:49:08;93849.25;;;29.06;75.00
11077;BME280;5591;42.626;23.380;2023-07-20T06:51:35;93850.28;;;28.75;74.66
11077;BME280;5591;42.626;23.380;2023-07-20T06:54:02;93868.63;;;27.85;81.01
11077;BME280;5591;42.626;23.380;2023-07-20T06:56:30;93855.59;;;28.01;82.39
11077;BME280;5591;42.626;23.380;2023-07-20T06:58:58;93842.47;;;28.08;81.50
11077;BME280;5591;42.626;23.380;2023-07-20T07:01:25;93866.78;;;27.94;82.27
11077;BME280;5591;42.626;23.380;2023-07-20T07:03:51;93875.88;;;28.91;75.31
11077;BME280;5591;42.626;23.380;2023-07-20T07:06:18;93869.91;;;29.41;72.83
11077;BME280;5591;42.626;23.380;2023-07-20T07:08:46;93879.53;;;29.56;70.65
11077;BME280;5591;42.626;23.380;2023-07-20T07:11:13;93881.97;;;29.66;71.40
11077;BME280;5591;42.626;23.380;2023-07-20T07:13:40;93880.50;;;30.24;68.87
11077;BME280;5591;42.626;23.380;2023-07-20T07:16:08;93878.63;;;29.77;72.18
11077;BME280;5591;42.626;23.380;2023-07-20T07:18:35;93894.81;;;28.77;80.13
11077;BME280;5591;42.626;23.380;2023-07-20T07:21:01;93905.44;;;28.03;85.66
11077;BME280;5591;42.626;23.380;2023-07-20T07:23:28;93917.06;;;28.04;85.14
11077;BME280;5591;42.626;23.380;2023-07-20T07:25:55;93931.66;;;27.89;79.65
11077;BME280;5591;42.626;23.380;2023-07-20T07:28:22;93925.75;;;28.50;79.61
11077;BME280;5591;42.626;23.380;2023-07-20T07:30:49;93929.72;;;28.66;81.99
11077;BME280;5591;42.626;23.380;2023-07-20T07:33:17;93925.56;;;28.68;82.39
11077;BME280;5591;42.626;23.380;2023-07-20T07:35:44;93916.31;;;28.82;82.46
11077;BME280;5591;42.626;23.380;2023-07-20T07:38:11;93920.75;;;29.31;81.39
11077;BME280;5591;42.626;23.380;2023-07-20T07:40:38;93921.75;;;28.69;79.49
11077;BME280;5591;42.626;23.380;2023-07-20T07:43:05;93912.19;;;28.63;81.00
11077;BME280;5591;42.626;23.380;2023-07-20T07:45:34;93912.75;;;28.95;81.60
11077;BME280;5591;42.626;23.380;2023-07-20T07:48:02;93907.63;;;29.46;78.37
11077;BME280;5591;42.626;23.380;2023-07-20T07:50:31;93914.97;;;28.71;83.48
11077;BME280;5591;42.626;23.380;2023-07-20T07:52:58;93909.28;;;29.25;81.73
11077;BME280;5591;42.626;23.380;2023-07-20T07:55:25;93887.75;;;29.98;78.46
11077;BME280;5591;42.626;23.380;2023-07-20T07:57:53;93874.13;;;30.12;78.46
11077;BME280;5591;42.626;23.380;2023-07-20T08:00:20;93861.69;;;30.28;75.77
11077;BME280;5591;42.626;23.380;2023-07-20T08:02:47;93877.00;;;30.58;73.72
11077;BME280;5591;42.626;23.380;2023-07-20T08:05:14;93872.22;;;30.80;71.64
11077;BME280;5591;42.626;23.380;2023-07-20T08:07:42;93861.81;;;30.99;69.31
11077;BME280;5591;42.626;23.380;2023-07-20T08:10:09;93877.22;;;31.33;68.94
11077;BME280;5591;42.626;23.380;2023-07-20T08:12:36;93893.13;;;30.63;70.75
11077;BME280;5591;42.626;23.380;2023-07-20T08:15:04;93907.53;;;29.51;77.97
11077;BME280;5591;42.626;23.380;2023-07-20T08:17:31;93919.56;;;29.45;79.72
11077;BME280;5591;42.626;23.380;2023-07-20T08:19:58;93928.06;;;29.52;80.32
11077;BME280;5591;42.626;23.380;2023-07-20T08:22:24;93913.81;;;29.38;81.56
11077;BME280;5591;42.626;23.380;2023-07-20T08:24:53;93923.06;;;29.76;80.38
11077;BME280;5591;42.626;23.380;2023-07-20T08:27:19;93913.28;;;29.58;82.14
11077;BME280;5591;42.626;23.380;2023-07-20T08:29:46;93938.09;;;28.99;86.98
11077;BME280;5591;42.626;23.380;2023-07-20T08:32:13;93867.69;;;28.39;89.62
11077;BME280;5591;42.626;23.380;2023-07-20T08:34:41;93908.44;;;28.51;93.52
11077;BME280;5591;42.626;23.380;2023-07-20T08:37:08;93927.97;;;27.72;97.04
11077;BME280;5591;42.626;23.380;2023-07-20T08:39:35;93936.63;;;27.42;97.83
11077;BME280;5591;42.626;23.380;2023-07-20T08:42:04;93925.97;;;27.77;96.11
11077;BME280;5591;42.626;23.380;2023-07-20T08:44:32;93921.34;;;27.37;95.12
11077;BME280;5591;42.626;23.380;2023-07-20T08:47:00;93917.84;;;27.23;92.26
11077;BME280;5591;42.626;23.380;2023-07-20T08:49:27;93919.06;;;27.58;87.15
11077;BME280;5591;42.626;23.380;2023-07-20T08:51:54;93916.34;;;27.71;84.87
11077;BME280;5591;42.626;23.380;2023-07-20T08:54:21;93937.00;;;27.22;84.26
11077;BME280;5591;42.626;23.380;2023-07-20T08:56:48;93934.44;;;27.71;81.08
11077;BME280;5591;42.626;23.380;2023-07-20T08:59:17;93955.91;;;27.62;77.43
11077;BME280;5591;42.626;23.380;2023-07-20T09:01:44;93911.06;;;27.39;79.07
11077;BME280;5591;42.626;23.380;2023-07-20T09:04:12;93895.41;;;27.82;77.77
11077;BME280;5591;42.626;23.380;2023-07-20T09:06:39;93909.78;;;27.64;80.09
11077;BME280;5591;42.626;23.380;2023-07-20T09:09:06;93897.09;;;27.78;79.02
11077;BME280;5591;42.626;23.380;2023-07-20T09:11:33;93910.06;;;27.89;76.20
11077;BME280;5591;42.626;23.380;2023-07-20T09:14:04;93919.97;;;27.94;76.00
11077;BME280;5591;42.626;23.380;2023-07-20T09:16:47;93908.41;;;28.15;74.20
11077;BME280;5591;42.626;23.380;2023-07-20T09:19:15;93902.13;;;28.55;72.18
11077;BME280;5591;42.626;23.380;2023-07-20T09:21:44;93898.28;;;28.91;71.88
11077;BME280;5591;42.626;23.380;2023-07-20T09:24:12;93901.16;;;28.73;69.65
11077;BME280;5591;42.626;23.380;2023-07-20T09:26:41;93879.88;;;28.58;70.92
11077;BME280;5591;42.626;23.380;2023-07-20T09:29:08;93905.19;;;28.40;73.15
11077;BME280;5591;42.626;23.380;2023-07-20T09:31:37;93894.34;;;28.54;70.03
11077;BME280;5591;42.626;23.380;2023-07-20T09:34:05;93883.16;;;28.47;70.50
11077;BME280;5591;42.626;23.380;2023-07-20T09:36:33;93873.91;;;28.26;69.02
11077;BME280;5591;42.626;23.380;2023-07-20T09:39:00;93896.13;;;28.80;67.19
11077;BME280;5591;42.626;23.380;2023-07-20T09:41:27;93887.25;;;29.10;67.39
11077;BME280;5591;42.626;23.380;2023-07-20T09:43:54;93883.44;;;29.11;67.54
11077;BME280;5591;42.626;23.380;2023-07-20T09:46:21;93881.91;;;29.57;66.85
11077;BME280;5591;42.626;23.380;2023-07-20T09:48:55;93879.09;;;29.79;62.88
11077;BME280;5591;42.626;23.380;2023-07-20T09:51:23;93872.16;;;29.48;62.63
11077;BME280;5591;42.626;23.380;2023-07-20T09:53:52;93869.56;;;29.82;58.61
11077;BME280;5591;42.626;23.380;2023-07-20T09:56:21;93865.38;;;29.67;60.59
11077;BME280;5591;42.626;23.380;2023-07-20T09:58:49;93858.56;;;29.61;61.57
11077;BME280;5591;42.626;23.380;2023-07-20T10:01:18;93844.94;;;30.94;55.77
11077;BME280;5591;42.626;23.380;2023-07-20T10:03:47;93810.66;;;30.81;53.72
11077;BME280;5591;42.626;23.380;2023-07-20T10:06:20;93838.00;;;31.13;55.48
11077;BME280;5591;42.626;23.380;2023-07-20T10:08:52;93851.06;;;31.28;53.83
11077;BME280;5591;42.626;23.380;2023-07-20T10:11:22;93843.19;;;30.81;53.49
11077;BME280;5591;42.626;23.380;2023-07-20T10:13:51;93834.91;;;30.77;52.67
11077;BME280;5591;42.626;23.380;2023-07-20T10:16:22;93794.91;;;29.89;55.47
11077;BME280;5591;42.626;23.380;2023-07-20T10:19:02;93856.91;;;30.25;54.08
11077;BME280;5591;42.626;23.380;2023-07-20T10:21:33;93858.50;;;30.77;51.96
11077;BME280;5591;42.626;23.380;2023-07-20T10:24:03;93871.75;;;30.78;50.75
11077;BME280;5591;42.626;23.380;2023-07-20T10:26:30;93855.34;;;30.66;49.80
11077;BME280;5591;42.626;23.380;2023-07-20T10:28:59;93868.09;;;30.32;50.26
11077;BME280;5591;42.626;23.380;2023-07-20T10:31:26;93874.97;;;31.80;47.07
11077;BME280;5591;42.626;23.380;2023-07-20T10:33:55;93864.44;;;31.79;47.96
11077;BME280;5591;42.626;23.380;2023-07-20T10:36:25;93854.84;;;32.72;45.68
11077;BME280;5591;42.626;23.380;2023-07-20T10:38:55;93864.41;;;34.15;42.77
11077;BME280;5591;42.626;23.380;2023-07-20T10:41:27;93836.72;;;34.91;40.82
11077;BME280;5591;42.626;23.380;2023-07-20T10:43:59;93849.50;;;33.40;40.76
11077;BME280;5591;42.626;23.380;2023-07-20T10:46:43;93854.41;;;32.00;44.38
11077;BME280;5591;42.626;23.380;2023-07-20T10:49:11;93839.56;;;31.60;47.04
11077;BME280;5591;42.626;23.380;2023-07-20T10:51:41;93829.03;;;32.16;47.08
11077;BME280;5591;42.626;23.380;2023-07-20T10:57:38;93790.75;;;34.39;42.06
11077;BME280;5591;42.626;23.380;2023-07-20T11:00:10;93807.41;;;33.50;43.11
11077;BME280;5591;42.626;23.380;2023-07-20T11:02:47;93814.28;;;32.79;45.65
11077;BME280;5591;42.626;23.380;2023-07-20T11:05:35;93805.94;;;33.28;45.02
11077;BME280;5591;42.626;23.380;2023-07-20T11:08:04;93775.56;;;33.38;43.07
11077;BME280;5591;42.626;23.380;2023-07-20T11:10:33;93759.69;;;34.16;41.71
11077;BME280;5591;42.626;23.380;2023-07-20T11:13:20;93777.09;;;35.21;40.50
11077;BME280;5591;42.626;23.380;2023-07-20T11:15:53;93765.31;;;35.98;40.00
11077;BME280;5591;42.626;23.380;2023-07-20T11:18:27;93781.34;;;36.34;38.76
11077;BME280;5591;42.626;23.380;2023-07-20T11:20:54;93784.97;;;36.76;37.33
11077;BME280;5591;42.626;23.380;2023-07-20T11:23:22;93792.06;;;36.23;37.54
11077;BME280;5591;42.626;23.380;2023-07-20T11:25:50;93787.88;;;36.10;37.50
11077;BME280;5591;42.626;23.380;2023-07-20T11:28:17;93779.84;;;36.55;36.96
11077;BME280;5591;42.626;23.380;2023-07-20T11:30:44;93760.06;;;36.81;37.01
11077;BME280;5591;42.626;23.380;2023-07-20T11:33:11;93768.09;;;37.12;36.37
11077;BME280;5591;42.626;23.380;2023-07-20T11:35:42;93760.94;;;37.97;35.35
11077;BME280;5591;42.626;23.380;2023-07-20T11:38:09;93748.38;;;38.51;34.09
11077;BME280;5591;42.626;23.380;2023-07-20T11:40:36;93754.16;;;39.09;33.36
11077;BME280;5591;42.626;23.380;2023-07-20T11:43:04;93748.16;;;39.00;33.12
11077;BME280;5591;42.626;23.380;2023-07-20T11:45:31;93757.13;;;39.73;32.25
11077;BME280;5591;42.626;23.380;2023-07-20T11:47:58;93746.38;;;40.79;31.16
11077;BME280;5591;42.626;23.380;2023-07-20T11:50:25;93745.38;;;41.75;30.23
11077;BME280;5591;42.626;23.380;2023-07-20T11:52:52;93739.63;;;42.90;28.88
11077;BME280;5591;42.626;23.380;2023-07-20T11:55:19;93741.81;;;39.32;32.40
11077;BME280;5591;42.626;23.380;2023-07-20T11:58:00;93733.78;;;38.44;34.51
11077;BME280;5591;42.626;23.380;2023-07-20T12:00:29;93732.22;;;40.88;31.84
11077;BME280;5591;42.626;23.380;2023-07-20T12:02:55;93713.69;;;38.36;33.73
11077;BME280;5591;42.626;23.380;2023-07-20T12:05:22;93731.56;;;37.97;34.89
11077;BME280;5591;42.626;23.380;2023-07-20T12:07:50;93716.91;;;37.90;33.93
11077;BME280;5591;42.626;23.380;2023-07-20T12:10:23;93713.97;;;37.76;33.72
11077;BME280;5591;42.626;23.380;2023-07-20T12:12:51;93717.47;;;37.99;33.02
11077;BME280;5591;42.626;23.380;2023-07-20T12:15:20;93721.84;;;37.07;34.96
11077;BME280;5591;42.626;23.380;2023-07-20T12:17:51;93726.19;;;35.94;36.67
11077;BME280;5591;42.626;23.380;2023-07-20T12:20:26;93670.00;;;35.77;36.48
11077;BME280;5591;42.626;23.380;2023-07-20T12:22:55;93701.25;;;38.16;33.42
11077;BME280;5591;42.626;23.380;2023-07-20T12:25:22;93729.41;;;37.61;33.25
11077;BME280;5591;42.626;23.380;2023-07-20T12:27:49;93699.50;;;37.05;33.49
11077;BME280;5591;42.626;23.380;2023-07-20T12:30:16;93716.09;;;35.17;35.22
11077;BME280;5591;42.626;23.380;2023-07-20T12:32:42;93707.00;;;36.47;33.66
11077;BME280;5591;42.626;23.380;2023-07-20T12:35:11;93714.66;;;39.24;30.27
11077;BME280;5591;42.626;23.380;2023-07-20T12:37:39;93646.56;;;37.97;30.44
11077;BME280;5591;42.626;23.380;2023-07-20T12:40:08;93701.44;;;37.04;32.06
11077;BME280;5591;42.626;23.380;2023-07-20T12:42:36;93709.13;;;37.66;31.19
11077;BME280;5591;42.626;23.380;2023-07-20T12:45:04;93706.72;;;36.33;32.11
11077;BME280;5591;42.626;23.380;2023-07-20T12:47:31;93700.53;;;36.36;32.38
11077;BME280;5591;42.626;23.380;2023-07-20T12:49:58;93711.28;;;37.05;31.89
11077;BME280;5591;42.626;23.380;2023-07-20T12:52:26;93630.00;;;36.68;31.92
11077;BME280;5591;42.626;23.380;2023-07-20T12:54:53;93702.06;;;37.65;32.51
11077;BME280;5591;42.626;23.380;2023-07-20T12:57:19;93687.78;;;36.44;32.21
11077;BME280;5591;42.626;23.380;2023-07-20T12:59:46;93665.97;;;37.11;30.57
11077;BME280;5591;42.626;23.380;2023-07-20T13:02:13;93699.44;;;37.24;29.92
11077;BME280;5591;42.626;23.380;2023-07-20T13:04:40;93693.38;;;37.11;30.32
11077;BME280;5591;42.626;23.380;2023-07-20T13:07:09;93639.00;;;37.13;29.63